Time;durP1;ratioP1;P1;durP2;ratioP2;P2;SDS_P1;SDS_P2;PMS_P1;PMS_P2;Temp;Humidity;BMP_temperature;BMP_pressure;BME280_temperature;BME280_humidity;BME280_pressure;Samples;Min_cycle;Max_cycle;Signal;HPM_P1;HPM_P2
2023/03/20 00:01:18;;;;;;;17.35;10.35;;;9.10;99.90;;;;;;5071786;28;20058;-35
2023/03/20 00:03:44;;;;;;;16.98;10.25;;;9.00;99.90;;;;;;5074489;28;20061;-35
2023/03/20 00:06:17;;;;;;;18.67;10.27;;;9.00;99.90;;;;;;5073815;28;20036;-35
2023/03/20 00:08:45;;;;;;;17.20;11.13;;;9.10;99.90;;;;;;5071509;28;20037;-35
2023/03/20 00:11:35;;;;;;;19.52;10.32;;;9.00;99.90;;;;;;5078418;28;20036;-35
2023/03/20 00:14:05;;;;;;;17.98;10.45;;;9.00;99.90;;;;;;5078764;28;20049;-35
2023/03/20 00:16:33;;;;;;;17.33;10.27;;;8.90;99.90;;;;;;5080003;28;20115;-34
2023/03/20 00:18:59;;;;;;;21.73;10.23;;;8.90;99.90;;;;;;5084273;28;20445;-35
2023/03/20 00:21:25;;;;;;;16.10;10.18;;;9.00;99.90;;;;;;5089776;28;20032;-34
2023/03/20 00:23:53;;;;;;;21.00;10.95;;;8.90;99.90;;;;;;5075341;28;20074;-35
2023/03/20 00:26:21;;;;;;;18.98;10.77;;;9.00;99.90;;;;;;5082519;28;20035;-34
2023/03/20 00:28:48;;;;;;;17.48;11.05;;;9.00;99.90;;;;;;5075047;28;20036;-34
2023/03/20 00:31:32;;;;;;;21.17;11.07;;;9.00;99.90;;;;;;5087308;28;20056;-35
2023/03/20 00:34:00;;;;;;;23.40;12.40;;;9.00;99.90;;;;;;5081651;28;20041;-35
2023/03/20 00:36:26;;;;;;;24.38;11.75;;;9.00;99.90;;;;;;5086398;28;20032;-34
2023/03/20 00:38:52;;;;;;;25.60;12.88;;;9.00;99.90;;;;;;5064693;28;20116;-35
2023/03/20 00:41:27;;;;;;;23.38;13.05;;;9.00;99.90;;;;;;5081183;28;20116;-35
2023/03/20 00:44:00;;;;;;;24.35;12.05;;;8.90;99.90;;;;;;5075753;28;20049;-35
2023/03/20 00:46:28;;;;;;;22.98;11.70;;;8.90;99.90;;;;;;5080249;28;20044;-35
2023/03/20 00:48:54;;;;;;;21.08;11.45;;;9.00;99.90;;;;;;5081338;28;20063;-35
2023/03/20 00:51:20;;;;;;;20.92;10.82;;;9.00;99.90;;;;;;5085683;28;20036;-34
2023/03/20 00:53:46;;;;;;;17.13;10.32;;;9.00;99.90;;;;;;5067498;28;20087;-35
2023/03/20 00:56:39;;;;;;;18.65;9.57;;;9.00;99.90;;;;;;5060314;28;20028;-36
2023/03/20 00:59:05;;;;;;;17.50;8.80;;;8.90;99.90;;;;;;5084154;28;20076;-35
2023/03/20 01:01:31;;;;;;;15.18;9.10;;;8.90;99.90;;;;;;5071048;28;20040;-35
2023/03/20 01:04:00;;;;;;;19.27;8.68;;;9.00;99.90;;;;;;5073606;28;20444;-35
2023/03/20 01:06:27;;;;;;;12.05;7.45;;;8.90;99.90;;;;;;5070531;28;20123;-35
2023/03/20 01:08:56;;;;;;;17.05;8.70;;;8.90;99.90;;;;;;5082315;28;20063;-35
2023/03/20 01:11:23;;;;;;;12.80;7.15;;;8.90;99.90;;;;;;5082436;28;20181;-34
2023/03/20 01:13:51;;;;;;;15.95;7.90;;;8.80;99.90;;;;;;5075338;28;20039;-35
2023/03/20 01:16:24;;;;;;;12.50;7.88;;;8.80;99.90;;;;;;5079736;28;20028;-34
2023/03/20 01:18:51;;;;;;;16.48;7.38;;;8.90;99.90;;;;;;5077442;28;20029;-35
2023/03/20 01:21:17;;;;;;;14.57;7.90;;;8.80;99.90;;;;;;5092100;28;20028;-34
2023/03/20 01:23:43;;;;;;;11.23;6.78;;;8.70;99.90;;;;;;5080866;28;20032;-34
2023/03/20 01:26:22;;;;;;;14.85;8.48;;;8.80;99.90;;;;;;5076296;28;20401;-35
2023/03/20 01:28:49;;;;;;;11.40;7.68;;;8.70;99.90;;;;;;5075858;28;20065;-35
2023/03/20 01:31:16;;;;;;;13.02;6.60;;;8.90;99.90;;;;;;5081027;28;20042;-35
2023/03/20 01:33:42;;;;;;;14.57;7.97;;;8.80;99.90;;;;;;5065434;28;20036;-35
2023/03/20 01:36:13;;;;;;;12.13;7.28;;;8.50;99.90;;;;;;5089097;28;20032;-35
2023/03/20 01:38:40;;;;;;;14.20;7.25;;;8.70;99.90;;;;;;5077424;28;20036;-35
2023/03/20 01:41:16;;;;;;;13.57;7.72;;;8.80;99.90;;;;;;5075897;28;20032;-35
2023/03/20 01:43:44;;;;;;;10.88;6.88;;;8.80;99.90;;;;;;5078661;28;20565;-35
2023/03/20 01:46:10;;;;;;;14.57;6.68;;;8.80;99.90;;;;;;5075045;28;20043;-35
2023/03/20 01:48:52;;;;;;;11.23;6.47;;;8.80;99.90;;;;;;5088034;28;20345;-34
2023/03/20 01:51:25;;;;;;;10.00;6.57;;;8.70;99.90;;;;;;5067164;28;20194;-35
2023/03/20 01:53:57;;;;;;;10.40;6.35;;;8.70;99.90;;;;;;5069998;28;20119;-35
2023/03/20 01:56:23;;;;;;;9.38;6.20;;;8.70;99.90;;;;;;5056330;28;20390;-35
2023/03/20 01:58:59;;;;;;;11.05;6.28;;;8.70;99.90;;;;;;5077083;28;20089;-34
2023/03/20 02:01:26;;;;;;;11.15;6.07;;;8.70;99.90;;;;;;5065379;28;20047;-35
2023/03/20 02:03:53;;;;;;;10.68;6.18;;;8.60;99.90;;;;;;5080870;28;20036;-35
2023/03/20 02:06:21;;;;;;;11.25;6.45;;;8.60;99.90;;;;;;5083938;28;20032;-35
2023/03/20 02:08:49;;;;;;;12.73;7.35;;;8.70;99.90;;;;;;5061748;28;20047;-35
2023/03/20 02:11:17;;;;;;;12.32;7.13;;;8.60;99.90;;;;;;5074569;28;20046;-35
2023/03/20 02:13:44;;;;;;;13.20;7.95;;;8.60;99.90;;;;;;5062730;28;20033;-35
2023/03/20 02:16:15;;;;;;;16.17;7.82;;;8.70;99.90;;;;;;5074828;28;20431;-34
2023/03/20 02:18:43;;;;;;;14.35;7.90;;;8.60;99.90;;;;;;5065858;28;20040;-34
2023/03/20 02:21:47;;;;;;;16.38;8.30;;;8.60;99.90;;;;;;5068112;28;20036;-35
2023/03/20 02:24:32;;;;;;;13.95;8.57;;;8.60;99.90;;;;;;5062868;28;20074;-35
2023/03/20 02:27:23;;;;;;;15.07;8.50;;;8.50;99.90;;;;;;5078207;28;20094;-35
2023/03/20 02:30:08;;;;;;;14.63;8.18;;;8.70;99.90;;;;;;5076548;28;20520;-35
2023/03/20 02:33:11;;;;;;;13.98;8.40;;;8.60;99.90;;;;;;5072068;28;20068;-35
2023/03/20 02:35:58;;;;;;;15.30;8.98;;;8.50;99.90;;;;;;5070363;28;20040;-35
2023/03/20 02:38:32;;;;;;;18.10;9.85;;;8.50;99.90;;;;;;5064094;28;20034;-35
2023/03/20 02:41:14;;;;;;;15.43;7.97;;;8.50;99.90;;;;;;5075869;28;20051;-35
2023/03/20 02:44:01;;;;;;;17.90;9.65;;;8.40;99.90;;;;;;5079425;28;20550;-35
2023/03/20 02:46:56;;;;;;;18.67;10.38;;;8.50;99.90;;;;;;5078301;28;20039;-35
2023/03/20 02:49:46;;;;;;;21.15;10.88;;;8.50;99.90;;;;;;5046444;28;20037;-34
2023/03/20 02:52:23;;;;;;;21.25;10.93;;;8.50;99.90;;;;;;5064764;28;20393;-35
2023/03/20 02:54:51;;;;;;;17.17;10.63;;;8.50;99.90;;;;;;5062101;28;20045;-34
2023/03/20 02:57:26;;;;;;;19.73;11.50;;;8.40;99.90;;;;;;5069543;28;20032;-35
2023/03/20 03:00:08;;;;;;;18.25;11.13;;;8.50;99.90;;;;;;5065394;28;20509;-35
2023/03/20 03:02:42;;;;;;;20.38;11.68;;;8.50;99.90;;;;;;5067379;28;20580;-35
2023/03/20 03:05:20;;;;;;;26.52;13.18;;;8.40;99.90;;;;;;5062308;28;20029;-34
2023/03/20 03:07:49;;;;;;;23.55;12.50;;;8.40;99.90;;;;;;5067533;28;20394;-34
2023/03/20 03:10:27;;;;;;;21.38;13.18;;;8.40;99.90;;;;;;5073277;28;20094;-34
2023/03/20 03:12:56;;;;;;;21.88;11.73;;;8.40;99.90;;;;;;5076217;28;20048;-35
2023/03/20 03:15:25;;;;;;;21.88;13.05;;;8.40;99.90;;;;;;5078618;28;20040;-35
2023/03/20 03:17:52;;;;;;;23.00;13.20;;;8.40;99.90;;;;;;5084165;28;20043;-35
2023/03/20 03:20:30;;;;;;;23.85;13.02;;;8.30;99.90;;;;;;5065002;28;20029;-35
2023/03/20 03:22:55;;;;;;;22.60;12.77;;;8.30;99.90;;;;;;5077793;28;20055;-35
2023/03/20 03:25:26;;;;;;;26.50;13.13;;;8.30;99.90;;;;;;5075192;28;20033;-35
2023/03/20 03:28:10;;;;;;;22.60;13.55;;;8.30;99.90;;;;;;5070197;28;20041;-35
2023/03/20 03:30:38;;;;;;;21.85;12.93;;;8.40;99.90;;;;;;5069131;28;20444;-35
2023/03/20 03:33:14;;;;;;;21.83;12.65;;;8.50;99.90;;;;;;5080340;28;20040;-35
2023/03/20 03:35:40;;;;;;;23.73;13.18;;;8.30;99.90;;;;;;5074578;28;20398;-35
2023/03/20 03:38:30;;;;;;;22.80;12.65;;;8.40;99.90;;;;;;5070359;28;20051;-35
2023/03/20 03:41:15;;;;;;;17.50;11.30;;;8.40;99.90;;;;;;5069329;28;20044;-34
2023/03/20 03:43:52;;;;;;;18.17;11.90;;;8.40;99.90;;;;;;5080603;28;20044;-35
2023/03/20 03:46:37;;;;;;;19.25;10.80;;;8.40;99.90;;;;;;5068266;28;20043;-35
2023/03/20 03:49:06;;;;;;;19.48;10.60;;;8.40;99.90;;;;;;5070547;28;20105;-35
2023/03/20 03:51:35;;;;;;;16.60;9.65;;;8.40;99.90;;;;;;5059290;28;20056;-35
2023/03/20 03:54:15;;;;;;;17.52;9.80;;;8.50;99.90;;;;;;5078187;28;20421;-35
2023/03/20 03:56:45;;;;;;;15.18;8.57;;;8.40;99.90;;;;;;5064687;28;20032;-35
2023/03/20 03:59:30;;;;;;;15.95;8.73;;;8.40;99.90;;;;;;5070981;28;20032;-35
2023/03/20 04:01:58;;;;;;;14.23;8.52;;;8.40;99.90;;;;;;5069593;28;20071;-35
2023/03/20 04:04:26;;;;;;;13.27;8.85;;;8.40;99.90;;;;;;5071540;28;20043;-35
2023/03/20 04:06:52;;;;;;;16.48;8.48;;;8.40;99.90;;;;;;5059944;28;20040;-35
2023/03/20 04:09:17;;;;;;;13.93;8.55;;;8.40;99.90;;;;;;5073876;28;20092;-35
2023/03/20 04:11:47;;;;;;;14.70;8.00;;;8.40;99.90;;;;;;5067422;28;20494;-35
2023/03/20 04:14:13;;;;;;;14.30;8.27;;;8.40;99.90;;;;;;5062667;28;20070;-34
2023/03/20 04:16:38;;;;;;;11.82;7.80;;;8.30;99.90;;;;;;5069625;28;20040;-34
2023/03/20 04:19:04;;;;;;;16.52;8.45;;;8.50;99.90;;;;;;5060192;28;20036;-35
2023/03/20 04:21:30;;;;;;;14.48;8.25;;;8.40;99.90;;;;;;5082638;28;20059;-35
2023/03/20 04:23:56;;;;;;;11.77;7.88;;;8.30;99.90;;;;;;5073866;28;20045;-34
2023/03/20 04:26:22;;;;;;;11.10;7.20;;;8.30;99.90;;;;;;5082038;28;20043;-35
2023/03/20 04:28:48;;;;;;;14.90;8.98;;;8.20;99.90;;;;;;5068784;28;20397;-35
2023/03/20 04:31:13;;;;;;;14.80;7.75;;;8.30;99.90;;;;;;5078532;28;20032;-35
2023/03/20 04:33:39;;;;;;;13.13;7.85;;;8.30;99.90;;;;;;5069304;28;20045;-34
2023/03/20 04:36:05;;;;;;;14.85;7.10;;;8.20;99.90;;;;;;5063265;28;20037;-35
2023/03/20 04:38:31;;;;;;;11.98;6.72;;;8.30;99.90;;;;;;5074681;28;20119;-35
2023/03/20 04:40:57;;;;;;;14.35;7.47;;;8.20;99.90;;;;;;5078109;28;20112;-34
2023/03/20 04:43:22;;;;;;;12.32;7.72;;;8.30;99.90;;;;;;5075500;28;20040;-35
2023/03/20 04:45:48;;;;;;;11.07;7.30;;;8.30;99.90;;;;;;5076289;28;20041;-35
2023/03/20 04:48:14;;;;;;;14.27;8.00;;;8.10;99.90;;;;;;5079417;28;20040;-35
2023/03/20 04:50:40;;;;;;;15.15;7.68;;;8.10;99.90;;;;;;5079747;28;20094;-35
2023/03/20 04:53:05;;;;;;;12.10;7.40;;;8.20;99.90;;;;;;5073845;28;20036;-35
2023/03/20 04:55:31;;;;;;;12.45;7.82;;;8.20;99.90;;;;;;5069813;28;20029;-34
2023/03/20 04:57:57;;;;;;;13.93;8.77;;;8.20;99.90;;;;;;5081889;28;20117;-35
2023/03/20 05:00:23;;;;;;;15.80;8.48;;;8.20;99.90;;;;;;5075093;28;20385;-35
2023/03/20 05:02:48;;;;;;;14.25;9.07;;;8.20;99.90;;;;;;5074547;28;20029;-34
2023/03/20 05:05:14;;;;;;;13.70;8.07;;;8.20;99.90;;;;;;5083877;28;20524;-35
2023/03/20 05:07:40;;;;;;;12.95;9.20;;;8.10;99.90;;;;;;5081243;28;20035;-35
2023/03/20 05:10:06;;;;;;;18.02;9.52;;;8.10;99.90;;;;;;5072408;28;20028;-35
2023/03/20 05:12:35;;;;;;;16.73;9.70;;;8.20;99.90;;;;;;5083594;28;20070;-35
2023/03/20 05:15:01;;;;;;;14.15;9.10;;;8.10;99.90;;;;;;5081643;28;20041;-35
2023/03/20 05:17:26;;;;;;;16.88;9.93;;;8.00;99.90;;;;;;5070552;28;20516;-34
2023/03/20 05:19:52;;;;;;;16.65;9.98;;;8.20;99.90;;;;;;5077243;28;20043;-34
2023/03/20 05:22:18;;;;;;;18.20;10.10;;;8.10;99.90;;;;;;5084678;28;20032;-35
2023/03/20 05:24:44;;;;;;;16.85;10.63;;;8.10;99.90;;;;;;5079102;28;20093;-35
2023/03/20 05:27:10;;;;;;;15.27;10.73;;;8.00;99.90;;;;;;5072866;28;20533;-35
2023/03/20 05:29:36;;;;;;;17.80;11.52;;;8.10;99.90;;;;;;5080931;28;20530;-34
2023/03/20 05:32:02;;;;;;;16.77;11.45;;;8.10;99.90;;;;;;5063000;28;20127;-35
2023/03/20 05:34:28;;;;;;;17.63;11.50;;;8.00;99.90;;;;;;5073882;28;20115;-35
2023/03/20 05:36:53;;;;;;;16.70;11.93;;;8.00;99.90;;;;;;5081926;28;20032;-35
2023/03/20 05:39:19;;;;;;;19.10;12.50;;;8.10;99.90;;;;;;5081535;28;20040;-35
2023/03/20 05:41:45;;;;;;;17.58;10.95;;;8.10;99.90;;;;;;5077103;28;20068;-35
2023/03/20 05:44:12;;;;;;;18.25;12.25;;;8.10;99.90;;;;;;5062092;28;20072;-34
2023/03/20 05:46:38;;;;;;;18.98;11.73;;;8.00;99.90;;;;;;5069226;28;20067;-34
2023/03/20 05:49:03;;;;;;;19.35;11.95;;;8.00;99.90;;;;;;5075776;28;20071;-34
2023/03/20 05:51:29;;;;;;;15.20;11.55;;;8.00;99.90;;;;;;5071136;28;20029;-34
2023/03/20 05:53:55;;;;;;;17.33;11.95;;;7.90;99.90;;;;;;5074314;28;20036;-35
2023/03/20 05:56:21;;;;;;;15.45;12.10;;;8.10;99.90;;;;;;5052797;28;20033;-35
2023/03/20 05:58:47;;;;;;;18.30;11.93;;;8.10;99.90;;;;;;5082670;28;20543;-35
2023/03/20 06:01:15;;;;;;;19.00;11.82;;;8.00;99.90;;;;;;5057147;28;20037;-34
2023/03/20 06:03:41;;;;;;;17.48;12.85;;;8.20;99.90;;;;;;5083027;28;20036;-34
2023/03/20 06:06:07;;;;;;;17.08;12.60;;;8.10;99.90;;;;;;5079187;28;20040;-35
2023/03/20 06:08:35;;;;;;;16.85;12.43;;;8.10;99.90;;;;;;5067343;28;20032;-34
2023/03/20 06:11:02;;;;;;;16.25;11.88;;;8.10;99.90;;;;;;5083837;28;20036;-34
2023/03/20 06:13:27;;;;;;;16.20;11.60;;;8.10;99.90;;;;;;5079619;28;20044;-34
2023/03/20 06:15:53;;;;;;;18.00;12.30;;;8.00;99.90;;;;;;5074333;28;20041;-36
2023/03/20 06:18:19;;;;;;;17.00;11.73;;;8.10;99.90;;;;;;5077035;28;20032;-34
2023/03/20 06:20:45;;;;;;;17.55;11.63;;;8.10;99.90;;;;;;5070847;28;20029;-34
2023/03/20 06:23:11;;;;;;;18.92;11.25;;;8.20;99.90;;;;;;5070352;28;20039;-34
2023/03/20 06:25:37;;;;;;;12.32;10.10;;;8.10;99.90;;;;;;5061686;28;20502;-34
2023/03/20 06:28:03;;;;;;;18.05;11.25;;;8.10;99.90;;;;;;5054752;28;20090;-34
2023/03/20 06:30:29;;;;;;;16.48;10.77;;;8.20;99.90;;;;;;5058362;28;20044;-35
2023/03/20 06:32:55;;;;;;;18.00;9.77;;;8.20;99.90;;;;;;5055611;28;20053;-35
2023/03/20 06:35:21;;;;;;;15.52;10.18;;;8.20;99.90;;;;;;5058717;28;20094;-35
2023/03/20 06:37:47;;;;;;;16.35;10.55;;;8.20;99.90;;;;;;5056152;28;20402;-35
2023/03/20 06:40:13;;;;;;;14.50;9.70;;;8.30;99.90;;;;;;5056164;28;20036;-34
2023/03/20 06:42:39;;;;;;;13.98;9.93;;;8.30;99.90;;;;;;5075230;28;20393;-35
2023/03/20 06:45:05;;;;;;;11.98;9.40;;;8.30;99.90;;;;;;5080252;28;20127;-35
2023/03/20 06:47:31;;;;;;;17.17;10.00;;;8.40;99.90;;;;;;5071879;28;20036;-35
2023/03/20 06:49:56;;;;;;;17.25;10.20;;;8.40;99.90;;;;;;5061105;28;20041;-34
2023/03/20 06:52:23;;;;;;;16.42;9.63;;;8.50;99.90;;;;;;5058055;28;20403;-35
2023/03/20 06:54:49;;;;;;;15.45;9.05;;;8.40;99.90;;;;;;5083437;28;20036;-34
2023/03/20 06:57:16;;;;;;;18.33;9.85;;;8.50;99.90;;;;;;5060432;28;20047;-35
2023/03/20 06:59:42;;;;;;;13.98;9.15;;;8.60;99.90;;;;;;5062999;28;20458;-35
2023/03/20 07:02:09;;;;;;;15.57;8.90;;;8.60;99.90;;;;;;5079093;28;20122;-35
2023/03/20 07:04:35;;;;;;;13.13;8.93;;;8.60;99.90;;;;;;5079081;28;20037;-35
2023/03/20 07:07:01;;;;;;;15.15;8.88;;;8.60;99.90;;;;;;5073548;28;20666;-34
2023/03/20 07:09:27;;;;;;;15.25;9.25;;;8.70;99.90;;;;;;5071168;28;20036;-35
2023/03/20 07:11:53;;;;;;;16.83;8.68;;;8.70;99.90;;;;;;5079242;28;20122;-35
2023/03/20 07:14:19;;;;;;;15.52;8.80;;;8.60;99.90;;;;;;5062584;28;20037;-35
2023/03/20 07:16:45;;;;;;;16.73;9.20;;;8.60;99.90;;;;;;5067624;28;20044;-35
2023/03/20 07:19:12;;;;;;;13.55;7.93;;;8.60;99.90;;;;;;5073099;28;20516;-35
2023/03/20 07:21:38;;;;;;;15.32;8.50;;;8.70;99.90;;;;;;5076051;28;20446;-34
2023/03/20 07:24:05;;;;;;;12.57;7.88;;;8.80;99.90;;;;;;5083846;28;20043;-34
2023/03/20 07:26:31;;;;;;;13.68;7.47;;;8.80;99.90;;;;;;5074354;28;20044;-34
2023/03/20 07:28:56;;;;;;;12.85;7.85;;;8.80;99.90;;;;;;5078872;28;20093;-35
2023/03/20 07:31:25;;;;;;;15.32;8.63;;;8.80;99.90;;;;;;5074561;28;20036;-34
2023/03/20 07:33:50;;;;;;;16.10;8.63;;;8.70;99.90;;;;;;5076091;28;20047;-35
2023/03/20 07:36:16;;;;;;;16.50;8.45;;;8.80;99.90;;;;;;5079477;28;20035;-35
2023/03/20 07:38:42;;;;;;;12.13;8.48;;;8.80;99.90;;;;;;5072339;28;20033;-35
2023/03/20 07:41:08;;;;;;;13.75;8.68;;;8.80;99.90;;;;;;5062261;28;20482;-35
2023/03/20 07:43:33;;;;;;;14.30;8.45;;;8.80;99.90;;;;;;5075824;28;20059;-34
2023/03/20 07:46:04;;;;;;;14.07;8.55;;;8.80;99.90;;;;;;5072326;28;20089;-35
2023/03/20 07:48:30;;;;;;;15.35;9.13;;;8.90;99.90;;;;;;5071889;28;20153;-34
2023/03/20 07:50:56;;;;;;;14.38;9.05;;;8.80;99.90;;;;;;5061776;28;20045;-34
2023/03/20 07:53:21;;;;;;;11.20;8.68;;;9.00;99.90;;;;;;5080514;28;20081;-35
2023/03/20 07:55:47;;;;;;;14.88;9.05;;;9.00;99.90;;;;;;5068581;28;20035;-35
2023/03/20 07:58:13;;;;;;;13.65;8.48;;;9.10;99.90;;;;;;5075793;28;20037;-34
2023/03/20 08:00:39;;;;;;;16.35;8.43;;;9.10;99.90;;;;;;5067642;28;20050;-34
2023/03/20 08:03:05;;;;;;;13.98;8.85;;;9.10;99.90;;;;;;5074941;28;20047;-36
2023/03/20 08:05:35;;;;;;;13.60;8.48;;;9.10;99.90;;;;;;5076599;28;20485;-34
2023/03/20 08:08:01;;;;;;;16.08;8.93;;;9.10;99.90;;;;;;5071848;28;20387;-36
2023/03/20 08:10:27;;;;;;;14.48;9.35;;;9.10;99.90;;;;;;5075805;28;20097;-36
2023/03/20 08:12:53;;;;;;;18.05;9.32;;;9.10;99.90;;;;;;5070929;28;20067;-34
2023/03/20 08:15:19;;;;;;;12.95;9.60;;;9.20;99.90;;;;;;5064075;28;20189;-34
2023/03/20 08:17:45;;;;;;;15.98;9.15;;;9.20;99.90;;;;;;5067724;28;20624;-33
2023/03/20 08:20:13;;;;;;;15.77;9.07;;;9.30;99.90;;;;;;5069804;28;20036;-34
2023/03/20 08:22:41;;;;;;;15.13;9.38;;;9.20;99.90;;;;;;5071979;28;20033;-33
2023/03/20 08:25:08;;;;;;;17.02;10.50;;;9.40;99.90;;;;;;5067619;28;20032;-34
2023/03/20 08:27:34;;;;;;;16.98;10.18;;;9.40;99.90;;;;;;5075361;28;20040;-34
2023/03/20 08:30:00;;;;;;;14.82;10.38;;;9.50;99.90;;;;;;5071825;28;20053;-33
2023/03/20 08:32:28;;;;;;;17.98;10.88;;;9.50;99.90;;;;;;5070272;28;20062;-33
2023/03/20 08:34:54;;;;;;;15.30;10.52;;;9.60;99.90;;;;;;5071168;28;20467;-33
2023/03/20 08:37:20;;;;;;;14.20;10.15;;;9.60;99.90;;;;;;5064929;28;20156;-33
2023/03/20 08:39:46;;;;;;;19.38;10.90;;;9.70;99.90;;;;;;5073844;28;20032;-34
2023/03/20 08:42:12;;;;;;;14.13;10.23;;;9.70;99.90;;;;;;5066869;28;20075;-34
2023/03/20 08:44:38;;;;;;;13.52;9.63;;;9.80;99.90;;;;;;5078660;28;20029;-34
2023/03/20 08:47:06;;;;;;;18.02;11.15;;;10.00;99.90;;;;;;5081950;28;20032;-33
2023/03/20 08:49:33;;;;;;;18.65;10.88;;;9.90;99.90;;;;;;5080688;28;20071;-34
2023/03/20 08:51:59;;;;;;;15.77;10.48;;;10.20;99.90;;;;;;5076578;28;20067;-34
2023/03/20 08:54:25;;;;;;;14.07;9.77;;;10.20;99.90;;;;;;5081019;28;20056;-34
2023/03/20 08:56:50;;;;;;;15.20;10.63;;;10.50;99.90;;;;;;5083928;28;20109;-34
2023/03/20 08:59:16;;;;;;;16.52;9.75;;;10.60;99.90;;;;;;5082576;28;20036;-34
2023/03/20 09:01:42;;;;;;;14.50;10.38;;;10.70;99.90;;;;;;5079504;28;20460;-34
2023/03/20 09:04:08;;;;;;;16.73;10.23;;;10.70;99.90;;;;;;5080291;28;20073;-34
2023/03/20 09:06:36;;;;;;;15.70;10.45;;;10.90;99.90;;;;;;5080114;28;20040;-34
2023/03/20 09:09:02;;;;;;;15.95;10.40;;;11.20;99.90;;;;;;5075717;28;20037;-34
2023/03/20 09:11:28;;;;;;;16.83;10.25;;;11.30;99.90;;;;;;5084070;28;20857;-34
2023/03/20 09:13:54;;;;;;;17.92;10.07;;;11.30;99.90;;;;;;5082343;28;20029;-33
2023/03/20 09:16:19;;;;;;;13.20;9.10;;;11.50;99.90;;;;;;5081186;28;20072;-34
2023/03/20 09:18:45;;;;;;;14.73;9.18;;;11.50;99.90;;;;;;5055028;28;20394;-34
2023/03/20 09:21:11;;;;;;;12.13;9.00;;;11.40;99.90;;;;;;5074286;28;20029;-34
2023/03/20 09:23:36;;;;;;;13.40;9.40;;;11.60;99.90;;;;;;5074385;28;20142;-34
2023/03/20 09:26:02;;;;;;;15.15;9.23;;;11.80;99.90;;;;;;5076335;28;20119;-34
2023/03/20 09:28:28;;;;;;;14.73;8.93;;;12.00;99.90;;;;;;5075371;28;20041;-34
2023/03/20 09:30:55;;;;;;;13.57;10.02;;;12.10;99.90;;;;;;5075453;28;20044;-34
2023/03/20 09:33:21;;;;;;;11.45;8.15;;;12.00;99.90;;;;;;5083416;28;20486;-34
2023/03/20 09:35:47;;;;;;;12.73;9.07;;;12.10;99.90;;;;;;5078238;28;20035;-34
2023/03/20 09:38:13;;;;;;;14.77;8.90;;;12.20;99.90;;;;;;5081648;28;20036;-34
2023/03/20 09:40:57;;;;;;;11.82;7.90;;;12.10;99.90;;;;;;5064615;28;20067;-34
2023/03/20 09:43:29;;;;;;;12.93;7.78;;;12.10;99.90;;;;;;5064127;28;20504;-34
2023/03/20 09:46:16;;;;;;;11.10;8.50;;;12.20;99.90;;;;;;5079909;28;20098;-34
2023/03/20 09:48:47;;;;;;;11.35;8.88;;;12.40;99.90;;;;;;5077836;28;20070;-34
2023/03/20 09:51:33;;;;;;;12.85;8.18;;;12.50;99.90;;;;;;5062553;28;20082;-34
2023/03/20 09:54:13;;;;;;;10.18;7.43;;;12.90;99.90;;;;;;5063257;28;20045;-34
2023/03/20 09:56:39;;;;;;;11.85;8.05;;;13.10;99.90;;;;;;5071548;28;20477;-34
2023/03/20 09:59:06;;;;;;;12.10;8.32;;;13.30;99.90;;;;;;5086324;28;20047;-35
2023/03/20 10:01:47;;;;;;;13.85;8.80;;;13.40;99.90;;;;;;5063526;28;20530;-33
2023/03/20 10:04:13;;;;;;;11.40;8.25;;;13.40;99.90;;;;;;5078183;28;20509;-34
2023/03/20 10:06:39;;;;;;;10.98;7.70;;;13.70;99.90;;;;;;5065112;28;20029;-34
2023/03/20 10:09:16;;;;;;;11.50;7.75;;;13.70;99.90;;;;;;5057105;28;20056;-34
2023/03/20 10:11:57;;;;;;;11.43;6.75;;;13.80;99.90;;;;;;5067551;28;20032;-34
2023/03/20 10:14:43;;;;;;;12.13;8.07;;;13.50;99.90;;;;;;5063199;28;20128;-34
2023/03/20 10:17:20;;;;;;;11.25;7.85;;;13.40;99.90;;;;;;5040365;28;20123;-34
2023/03/20 10:19:56;;;;;;;12.05;7.05;;;13.70;99.90;;;;;;5054424;28;20098;-34
2023/03/20 10:22:28;;;;;;;12.43;7.20;;;13.60;99.90;;;;;;5074182;28;20032;-34
2023/03/20 10:25:00;;;;;;;13.57;8.05;;;13.80;99.90;;;;;;5064639;28;20045;-34
2023/03/20 10:27:33;;;;;;;13.20;8.05;;;13.70;99.90;;;;;;5070678;28;20071;-34
2023/03/20 10:29:58;;;;;;;10.37;7.83;;;13.50;99.90;;;;;;5063917;28;20053;-34
2023/03/20 10:32:34;;;;;;;11.73;8.38;;;13.40;99.90;;;;;;5057205;28;20511;-34
2023/03/20 10:35:18;;;;;;;12.00;9.00;;;13.10;99.90;;;;;;5067808;28;20045;-34
2023/03/20 10:37:53;;;;;;;11.02;7.57;;;12.70;99.90;;;;;;5070107;28;20119;-34
2023/03/20 10:40:28;;;;;;;11.20;7.70;;;12.60;99.90;;;;;;5071994;28;20161;-34
2023/03/20 10:43:08;;;;;;;14.25;8.88;;;12.30;99.90;;;;;;5067976;28;20041;-34
2023/03/20 10:45:57;;;;;;;13.00;8.45;;;12.30;99.90;;;;;;5062403;28;20037;-34
2023/03/20 10:48:41;;;;;;;13.43;9.20;;;12.20;99.90;;;;;;5065757;28;20036;-33
2023/03/20 10:51:20;;;;;;;12.95;9.23;;;12.00;99.90;;;;;;5064314;28;20072;-33
2023/03/20 10:53:58;;;;;;;12.90;9.10;;;12.00;99.90;;;;;;5061331;28;20044;-33
2023/03/20 10:56:44;;;;;;;12.50;7.78;;;11.80;99.90;;;;;;5086124;28;20036;-33
2023/03/20 10:59:21;;;;;;;16.50;10.10;;;11.40;99.90;;;;;;5068552;28;20051;-33
2023/03/20 11:01:47;;;;;;;13.15;9.10;;;11.30;99.90;;;;;;5079544;28;20036;-34
2023/03/20 11:04:12;;;;;;;12.77;8.25;;;11.20;99.90;;;;;;5065645;28;20047;-33
2023/03/20 11:06:54;;;;;;;12.55;7.65;;;11.00;99.90;;;;;;5051934;28;20041;-33
2023/03/20 11:09:25;;;;;;;12.85;7.90;;;10.90;99.90;;;;;;5065081;28;20041;-33
2023/03/20 11:11:56;;;;;;;10.15;6.72;;;10.80;99.90;;;;;;5054888;28;20086;-33
2023/03/20 11:14:26;;;;;;;9.07;6.72;;;10.90;99.90;;;;;;5071087;28;20124;-33
2023/03/20 11:16:59;;;;;;;8.55;6.18;;;10.80;99.90;;;;;;5052286;28;20067;-33
2023/03/20 11:19:25;;;;;;;10.73;6.80;;;11.00;99.90;;;;;;5051736;28;20037;-33
2023/03/20 11:22:01;;;;;;;13.77;7.28;;;11.00;99.90;;;;;;5051533;28;20400;-33
2023/03/20 11:24:26;;;;;;;10.43;6.63;;;11.30;99.90;;;;;;5062915;28;20068;-33
2023/03/20 11:26:54;;;;;;;12.82;6.43;;;11.30;99.90;;;;;;5071511;28;20070;-33
2023/03/20 11:29:30;;;;;;;12.13;7.07;;;11.30;99.90;;;;;;5071827;28;20102;-33
2023/03/20 11:32:32;;;;;;;6.88;6.10;;;11.40;99.90;;;;;;5071066;28;20390;-33
2023/03/20 11:35:16;;;;;;;9.80;6.60;;;11.30;99.90;;;;;;5058075;28;20059;-33
2023/03/20 11:37:44;;;;;;;10.75;7.03;;;11.10;99.90;;;;;;5071241;28;20501;-33
2023/03/20 11:40:28;;;;;;;13.68;6.88;;;11.00;99.90;;;;;;5056037;28;20123;-33
2023/03/20 11:43:00;;;;;;;8.23;6.85;;;11.10;99.90;;;;;;5050905;28;20095;-34
2023/03/20 11:45:48;;;;;;;9.07;6.85;;;11.10;99.90;;;;;;5051119;28;20055;-33
2023/03/20 11:48:34;;;;;;;8.20;6.95;;;11.10;99.90;;;;;;5065562;28;20127;-34
2023/03/20 11:51:09;;;;;;;10.57;6.47;;;11.00;99.90;;;;;;5061795;28;20036;-33
2023/03/20 11:53:45;;;;;;;10.65;6.43;;;11.00;99.90;;;;;;5081253;28;20047;-34
2023/03/20 11:56:13;;;;;;;11.18;6.95;;;11.00;99.90;;;;;;5091372;28;20036;-33
2023/03/20 11:58:55;;;;;;;11.15;7.78;;;11.10;99.90;;;;;;5062525;28;20037;-34
2023/03/20 12:01:21;;;;;;;10.70;7.88;;;10.90;99.90;;;;;;5060202;28;20045;-34
2023/03/20 12:03:50;;;;;;;8.80;7.45;;;10.80;99.90;;;;;;5075834;28;20055;-34
2023/03/20 12:06:19;;;;;;;11.80;7.80;;;10.70;99.90;;;;;;5070629;28;20041;-33
2023/03/20 12:08:53;;;;;;;10.13;7.47;;;10.70;99.90;;;;;;5053944;28;20050;-33
2023/03/20 12:11:36;;;;;;;13.13;8.48;;;10.70;99.90;;;;;;5070659;28;20041;-34
2023/03/20 12:14:05;;;;;;;13.10;7.57;;;10.70;99.90;;;;;;5067678;28;20504;-33
2023/03/20 12:16:34;;;;;;;10.27;7.93;;;10.90;99.90;;;;;;5068086;28;20032;-33
2023/03/20 12:19:11;;;;;;;12.48;7.40;;;10.80;99.90;;;;;;5053423;28;20836;-33
2023/03/20 12:22:20;;;;;;;10.30;6.80;;;10.90;99.90;;;;;;5065256;28;20041;-33
2023/03/20 12:25:11;;;;;;;10.02;5.85;;;11.00;99.90;;;;;;5069544;28;20128;-33
2023/03/20 12:27:47;;;;;;;8.10;6.65;;;11.10;99.90;;;;;;5059638;28;20080;-33
2023/03/20 12:30:30;;;;;;;11.98;5.55;;;11.20;99.90;;;;;;5065812;28;20046;-33
2023/03/20 12:33:19;;;;;;;6.53;4.93;;;11.20;99.90;;;;;;5050344;28;20045;-33
2023/03/20 12:35:48;;;;;;;7.53;4.43;;;11.10;99.90;;;;;;5058981;28;20174;-34
2023/03/20 12:38:28;;;;;;;8.32;4.85;;;11.10;99.90;;;;;;5070700;28;20067;-33
2023/03/20 12:41:35;;;;;;;8.82;4.70;;;10.90;99.90;;;;;;5050492;28;20033;-33
2023/03/20 12:44:05;;;;;;;5.38;3.92;;;10.80;99.90;;;;;;5005592;28;20235;-35
2023/03/20 12:46:42;;;;;;;6.35;4.25;;;10.70;99.90;;;;;;5013708;28;20041;-33
2023/03/20 12:49:33;;;;;;;9.07;4.20;;;10.70;99.90;;;;;;5041543;28;20066;-36
2023/03/20 12:52:46;;;;;;;8.88;4.30;;;10.70;99.90;;;;;;5081123;28;20043;-34
2023/03/20 12:55:46;;;;;;;8.00;4.90;;;10.80;99.90;;;;;;5044463;28;20100;-34
2023/03/20 12:58:54;;;;;;;7.95;4.50;;;11.00;99.90;;;;;;5084470;28;20044;-34
2023/03/20 13:01:30;;;;;;;7.20;4.45;;;10.90;99.90;;;;;;5068278;28;20049;-35